sensor_id;sensor_type;location;lat;lon;timestamp;P1;durP1;ratioP1;P2;durP2;ratioP2
6388;SDS011;3227;42.654;23.360;2023-09-19T00:01:39;8.30;;;4.18;;
6388;SDS011;3227;42.654;23.360;2023-09-19T00:04:07;8.77;;;4.50;;
6388;SDS011;3227;42.654;23.360;2023-09-19T00:06:35;8.00;;;4.47;;
6388;SDS011;3227;42.654;23.360;2023-09-19T00:09:02;7.60;;;4.50;;
6388;SDS011;3227;42.654;23.360;2023-09-19T00:11:29;7.50;;;4.37;;
6388;SDS011;3227;42.654;23.360;2023-09-19T00:13:56;8.67;;;4.60;;
6388;SDS011;3227;42.654;23.360;2023-09-19T00:16:24;8.25;;;5.32;;
6388;SDS011;3227;42.654;23.360;2023-09-19T00:18:51;8.47;;;4.43;;
6388;SDS011;3227;42.654;23.360;2023-09-19T00:21:19;7.87;;;4.60;;
6388;SDS011;3227;42.654;23.360;2023-09-19T00:23:47;7.80;;;4.30;;
6388;SDS011;3227;42.654;23.360;2023-09-19T00:26:14;8.53;;;4.13;;
6388;SDS011;3227;42.654;23.360;2023-09-19T00:28:43;10.83;;;4.53;;
6388;SDS011;3227;42.654;23.360;2023-09-19T00:31:10;8.43;;;4.23;;
6388;SDS011;3227;42.654;23.360;2023-09-19T00:33:36;8.17;;;4.67;;
6388;SDS011;3227;42.654;23.360;2023-09-19T00:36:04;7.57;;;4.38;;
6388;SDS011;3227;42.654;23.360;2023-09-19T00:38:32;8.73;;;4.37;;
6388;SDS011;3227;42.654;23.360;2023-09-19T00:40:59;9.27;;;4.93;;
6388;SDS011;3227;42.654;23.360;2023-09-19T00:43:26;7.30;;;4.80;;
6388;SDS011;3227;42.654;23.360;2023-09-19T00:45:55;7.73;;;4.83;;
6388;SDS011;3227;42.654;23.360;2023-09-19T00:48:22;9.63;;;4.70;;
6388;SDS011;3227;42.654;23.360;2023-09-19T00:50:54;8.50;;;4.73;;
6388;SDS011;3227;42.654;23.360;2023-09-19T00:53:23;10.57;;;5.03;;
6388;SDS011;3227;42.654;23.360;2023-09-19T00:55:53;8.47;;;5.03;;
6388;SDS011;3227;42.654;23.360;2023-09-19T00:58:22;12.47;;;5.57;;
6388;SDS011;3227;42.654;23.360;2023-09-19T01:00:49;8.47;;;4.67;;
6388;SDS011;3227;42.654;23.360;2023-09-19T01:03:16;12.83;;;5.10;;
6388;SDS011;3227;42.654;23.360;2023-09-19T01:05:43;12.13;;;5.30;;
6388;SDS011;3227;42.654;23.360;2023-09-19T01:08:10;7.40;;;5.17;;
6388;SDS011;3227;42.654;23.360;2023-09-19T01:10:37;9.80;;;5.03;;
6388;SDS011;3227;42.654;23.360;2023-09-19T01:13:13;8.90;;;5.03;;
6388;SDS011;3227;42.654;23.360;2023-09-19T01:15:49;9.20;;;4.57;;
6388;SDS011;3227;42.654;23.360;2023-09-19T01:18:21;10.07;;;4.90;;
6388;SDS011;3227;42.654;23.360;2023-09-19T01:21:03;10.10;;;5.20;;
6388;SDS011;3227;42.654;23.360;2023-09-19T01:23:39;11.20;;;5.33;;
6388;SDS011;3227;42.654;23.360;2023-09-19T01:26:29;11.20;;;5.30;;
6388;SDS011;3227;42.654;23.360;2023-09-19T01:29:21;9.50;;;5.67;;
6388;SDS011;3227;42.654;23.360;2023-09-19T01:32:03;10.83;;;4.73;;
6388;SDS011;3227;42.654;23.360;2023-09-19T01:34:43;8.13;;;5.37;;
6388;SDS011;3227;42.654;23.360;2023-09-19T01:37:12;8.67;;;5.17;;
6388;SDS011;3227;42.654;23.360;2023-09-19T01:39:39;9.00;;;4.80;;
6388;SDS011;3227;42.654;23.360;2023-09-19T01:42:08;8.07;;;5.13;;
6388;SDS011;3227;42.654;23.360;2023-09-19T01:44:49;7.87;;;5.07;;
6388;SDS011;3227;42.654;23.360;2023-09-19T01:47:26;8.83;;;4.63;;
6388;SDS011;3227;42.654;23.360;2023-09-19T01:50:01;8.00;;;4.93;;
6388;SDS011;3227;42.654;23.360;2023-09-19T01:52:40;12.13;;;5.30;;
6388;SDS011;3227;42.654;23.360;2023-09-19T01:55:13;9.83;;;5.80;;
6388;SDS011;3227;42.654;23.360;2023-09-19T01:57:45;9.27;;;4.80;;
6388;SDS011;3227;42.654;23.360;2023-09-19T02:00:19;8.40;;;5.20;;
6388;SDS011;3227;42.654;23.360;2023-09-19T02:02:50;11.47;;;6.20;;
6388;SDS011;3227;42.654;23.360;2023-09-19T02:05:24;8.77;;;5.30;;
6388;SDS011;3227;42.654;23.360;2023-09-19T02:07:53;8.23;;;5.10;;
6388;SDS011;3227;42.654;23.360;2023-09-19T02:10:21;9.93;;;5.00;;
6388;SDS011;3227;42.654;23.360;2023-09-19T02:12:48;9.53;;;5.07;;
6388;SDS011;3227;42.654;23.360;2023-09-19T02:15:16;9.87;;;5.03;;
6388;SDS011;3227;42.654;23.360;2023-09-19T02:17:42;8.10;;;5.37;;
6388;SDS011;3227;42.654;23.360;2023-09-19T02:20:12;13.23;;;5.77;;
6388;SDS011;3227;42.654;23.360;2023-09-19T02:22:39;10.23;;;4.93;;
6388;SDS011;3227;42.654;23.360;2023-09-19T02:25:06;7.97;;;5.00;;
6388;SDS011;3227;42.654;23.360;2023-09-19T02:27:33;9.10;;;5.67;;
6388;SDS011;3227;42.654;23.360;2023-09-19T02:30:01;8.37;;;5.50;;
6388;SDS011;3227;42.654;23.360;2023-09-19T02:32:29;10.80;;;5.40;;
6388;SDS011;3227;42.654;23.360;2023-09-19T02:34:56;11.37;;;6.27;;
6388;SDS011;3227;42.654;23.360;2023-09-19T02:37:26;10.80;;;5.60;;
6388;SDS011;3227;42.654;23.360;2023-09-19T02:39:52;8.80;;;5.63;;
6388;SDS011;3227;42.654;23.360;2023-09-19T02:42:19;13.70;;;6.17;;
6388;SDS011;3227;42.654;23.360;2023-09-19T02:44:46;12.57;;;5.80;;
6388;SDS011;3227;42.654;23.360;2023-09-19T02:47:13;9.43;;;5.60;;
6388;SDS011;3227;42.654;23.360;2023-09-19T02:49:41;9.10;;;5.80;;
6388;SDS011;3227;42.654;23.360;2023-09-19T02:52:09;9.10;;;5.40;;
6388;SDS011;3227;42.654;23.360;2023-09-19T02:54:38;12.20;;;6.47;;
6388;SDS011;3227;42.654;23.360;2023-09-19T02:57:05;9.17;;;5.93;;
6388;SDS011;3227;42.654;23.360;2023-09-19T02:59:32;9.97;;;5.80;;
6388;SDS011;3227;42.654;23.360;2023-09-19T03:02:02;9.60;;;5.47;;
6388;SDS011;3227;42.654;23.360;2023-09-19T03:04:30;11.33;;;5.70;;
6388;SDS011;3227;42.654;23.360;2023-09-19T03:06:58;10.77;;;5.80;;
6388;SDS011;3227;42.654;23.360;2023-09-19T03:09:26;11.70;;;5.53;;
6388;SDS011;3227;42.654;23.360;2023-09-19T03:11:54;12.60;;;6.40;;
6388;SDS011;3227;42.654;23.360;2023-09-19T03:14:21;11.50;;;5.57;;
6388;SDS011;3227;42.654;23.360;2023-09-19T03:16:48;9.27;;;5.77;;
6388;SDS011;3227;42.654;23.360;2023-09-19T03:19:17;9.43;;;5.20;;
6388;SDS011;3227;42.654;23.360;2023-09-19T03:21:46;9.73;;;5.00;;
6388;SDS011;3227;42.654;23.360;2023-09-19T03:24:14;11.00;;;5.57;;
6388;SDS011;3227;42.654;23.360;2023-09-19T03:26:41;10.80;;;5.07;;
6388;SDS011;3227;42.654;23.360;2023-09-19T03:29:09;11.40;;;5.20;;
6388;SDS011;3227;42.654;23.360;2023-09-19T03:31:36;8.83;;;5.13;;
6388;SDS011;3227;42.654;23.360;2023-09-19T03:34:03;11.93;;;5.67;;
6388;SDS011;3227;42.654;23.360;2023-09-19T03:36:30;10.97;;;5.77;;
6388;SDS011;3227;42.654;23.360;2023-09-19T03:39:00;8.13;;;4.87;;
6388;SDS011;3227;42.654;23.360;2023-09-19T03:41:27;12.50;;;5.57;;
6388;SDS011;3227;42.654;23.360;2023-09-19T03:43:53;10.73;;;5.80;;
6388;SDS011;3227;42.654;23.360;2023-09-19T03:46:22;8.07;;;5.37;;
6388;SDS011;3227;42.654;23.360;2023-09-19T03:48:48;11.07;;;5.73;;
6388;SDS011;3227;42.654;23.360;2023-09-19T03:51:15;11.80;;;5.70;;
6388;SDS011;3227;42.654;23.360;2023-09-19T03:53:42;12.43;;;6.20;;
6388;SDS011;3227;42.654;23.360;2023-09-19T03:56:09;11.17;;;6.13;;
6388;SDS011;3227;42.654;23.360;2023-09-19T03:58:36;11.63;;;6.33;;
6388;SDS011;3227;42.654;23.360;2023-09-19T04:01:05;12.10;;;6.13;;
6388;SDS011;3227;42.654;23.360;2023-09-19T04:03:34;9.07;;;5.87;;
6388;SDS011;3227;42.654;23.360;2023-09-19T04:06:11;9.63;;;5.77;;
6388;SDS011;3227;42.654;23.360;2023-09-19T04:08:38;14.33;;;6.17;;
6388;SDS011;3227;42.654;23.360;2023-09-19T04:11:05;15.13;;;6.33;;
6388;SDS011;3227;42.654;23.360;2023-09-19T04:13:32;12.13;;;5.83;;
6388;SDS011;3227;42.654;23.360;2023-09-19T04:15:58;12.07;;;6.13;;
6388;SDS011;3227;42.654;23.360;2023-09-19T04:18:25;9.97;;;5.57;;
6388;SDS011;3227;42.654;23.360;2023-09-19T04:20:54;15.30;;;7.60;;
6388;SDS011;3227;42.654;23.360;2023-09-19T04:23:21;11.93;;;6.60;;
6388;SDS011;3227;42.654;23.360;2023-09-19T04:25:48;12.43;;;6.37;;
6388;SDS011;3227;42.654;23.360;2023-09-19T04:28:15;10.13;;;6.13;;
6388;SDS011;3227;42.654;23.360;2023-09-19T04:30:42;13.27;;;6.23;;
6388;SDS011;3227;42.654;23.360;2023-09-19T04:33:09;14.77;;;6.47;;
6388;SDS011;3227;42.654;23.360;2023-09-19T04:35:36;9.97;;;6.00;;
6388;SDS011;3227;42.654;23.360;2023-09-19T04:38:05;17.87;;;6.80;;
6388;SDS011;3227;42.654;23.360;2023-09-19T04:40:32;23.15;;;8.50;;
6388;SDS011;3227;42.654;23.360;2023-09-19T04:42:59;30.02;;;12.27;;
6388;SDS011;3227;42.654;23.360;2023-09-19T04:45:26;32.40;;;11.95;;
6388;SDS011;3227;42.654;23.360;2023-09-19T04:47:54;19.10;;;8.23;;
6388;SDS011;3227;42.654;23.360;2023-09-19T04:50:21;16.45;;;7.35;;
6388;SDS011;3227;42.654;23.360;2023-09-19T04:52:49;19.40;;;7.40;;
6388;SDS011;3227;42.654;23.360;2023-09-19T04:55:18;11.60;;;6.82;;
6388;SDS011;3227;42.654;23.360;2023-09-19T04:57:46;16.27;;;7.25;;
6388;SDS011;3227;42.654;23.360;2023-09-19T05:00:14;15.13;;;7.53;;
6388;SDS011;3227;42.654;23.360;2023-09-19T05:02:42;17.80;;;7.25;;
6388;SDS011;3227;42.654;23.360;2023-09-19T05:05:09;18.77;;;7.70;;
6388;SDS011;3227;42.654;23.360;2023-09-19T05:07:37;14.55;;;7.60;;
6388;SDS011;3227;42.654;23.360;2023-09-19T05:10:05;15.65;;;7.00;;
6388;SDS011;3227;42.654;23.360;2023-09-19T05:12:34;11.55;;;6.90;;
6388;SDS011;3227;42.654;23.360;2023-09-19T05:15:01;12.20;;;6.93;;
6388;SDS011;3227;42.654;23.360;2023-09-19T05:17:29;13.00;;;6.57;;
6388;SDS011;3227;42.654;23.360;2023-09-19T05:19:56;10.13;;;6.30;;
6388;SDS011;3227;42.654;23.360;2023-09-19T05:22:23;11.48;;;6.35;;
6388;SDS011;3227;42.654;23.360;2023-09-19T05:24:50;11.70;;;6.30;;
6388;SDS011;3227;42.654;23.360;2023-09-19T05:27:18;13.35;;;6.35;;
6388;SDS011;3227;42.654;23.360;2023-09-19T05:29:47;17.17;;;5.90;;
6388;SDS011;3227;42.654;23.360;2023-09-19T05:32:16;12.15;;;5.88;;
6388;SDS011;3227;42.654;23.360;2023-09-19T05:34:43;10.48;;;5.50;;
6388;SDS011;3227;42.654;23.360;2023-09-19T05:37:09;10.95;;;5.00;;
6388;SDS011;3227;42.654;23.360;2023-09-19T05:39:36;10.02;;;6.07;;
6388;SDS011;3227;42.654;23.360;2023-09-19T05:42:03;10.23;;;5.57;;
6388;SDS011;3227;42.654;23.360;2023-09-19T05:44:30;12.43;;;6.18;;
6388;SDS011;3227;42.654;23.360;2023-09-19T05:46:59;9.43;;;5.53;;
6388;SDS011;3227;42.654;23.360;2023-09-19T05:49:26;8.75;;;5.30;;
6388;SDS011;3227;42.654;23.360;2023-09-19T05:51:53;13.88;;;5.22;;
6388;SDS011;3227;42.654;23.360;2023-09-19T05:54:24;15.10;;;6.57;;
6388;SDS011;3227;42.654;23.360;2023-09-19T05:56:51;14.88;;;7.22;;
6388;SDS011;3227;42.654;23.360;2023-09-19T05:59:18;12.25;;;6.25;;
6388;SDS011;3227;42.654;23.360;2023-09-19T06:01:45;13.38;;;5.55;;
6388;SDS011;3227;42.654;23.360;2023-09-19T06:04:13;10.75;;;5.70;;
6388;SDS011;3227;42.654;23.360;2023-09-19T06:06:40;10.73;;;5.13;;
6388;SDS011;3227;42.654;23.360;2023-09-19T06:09:07;13.65;;;5.82;;
6388;SDS011;3227;42.654;23.360;2023-09-19T06:11:34;9.77;;;5.38;;
6388;SDS011;3227;42.654;23.360;2023-09-19T06:14:01;9.77;;;5.57;;
6388;SDS011;3227;42.654;23.360;2023-09-19T06:19:51;10.05;;;5.53;;
6388;SDS011;3227;42.654;23.360;2023-09-19T06:22:17;11.60;;;5.88;;
6388;SDS011;3227;42.654;23.360;2023-09-19T06:24:44;15.30;;;6.05;;
6388;SDS011;3227;42.654;23.360;2023-09-19T06:27:12;10.85;;;5.75;;
6388;SDS011;3227;42.654;23.360;2023-09-19T06:29:38;11.98;;;6.20;;
6388;SDS011;3227;42.654;23.360;2023-09-19T06:32:06;11.05;;;6.10;;
6388;SDS011;3227;42.654;23.360;2023-09-19T06:34:34;13.63;;;5.72;;
6388;SDS011;3227;42.654;23.360;2023-09-19T06:37:02;8.00;;;5.32;;
6388;SDS011;3227;42.654;23.360;2023-09-19T06:39:29;11.13;;;6.32;;
6388;SDS011;3227;42.654;23.360;2023-09-19T06:41:56;9.95;;;5.03;;
6388;SDS011;3227;42.654;23.360;2023-09-19T06:44:23;13.68;;;5.90;;
6388;SDS011;3227;42.654;23.360;2023-09-19T06:46:50;9.23;;;5.55;;
6388;SDS011;3227;42.654;23.360;2023-09-19T06:49:17;9.32;;;5.50;;
6388;SDS011;3227;42.654;23.360;2023-09-19T06:51:44;11.30;;;5.88;;
6388;SDS011;3227;42.654;23.360;2023-09-19T06:54:12;23.75;;;6.35;;
6388;SDS011;3227;42.654;23.360;2023-09-19T06:56:39;14.43;;;5.93;;
6388;SDS011;3227;42.654;23.360;2023-09-19T06:59:06;24.73;;;6.78;;
6388;SDS011;3227;42.654;23.360;2023-09-19T07:01:33;10.70;;;5.22;;
6388;SDS011;3227;42.654;23.360;2023-09-19T07:04:01;17.67;;;6.57;;
6388;SDS011;3227;42.654;23.360;2023-09-19T07:06:28;11.43;;;5.93;;
6388;SDS011;3227;42.654;23.360;2023-09-19T07:08:55;13.30;;;6.13;;
6388;SDS011;3227;42.654;23.360;2023-09-19T07:11:23;12.98;;;6.35;;
6388;SDS011;3227;42.654;23.360;2023-09-19T07:13:50;21.10;;;6.82;;
6388;SDS011;3227;42.654;23.360;2023-09-19T07:16:17;12.48;;;5.53;;
6388;SDS011;3227;42.654;23.360;2023-09-19T07:18:52;9.95;;;6.32;;
6388;SDS011;3227;42.654;23.360;2023-09-19T07:21:20;13.07;;;5.80;;
6388;SDS011;3227;42.654;23.360;2023-09-19T07:23:47;11.70;;;5.60;;
6388;SDS011;3227;42.654;23.360;2023-09-19T07:26:14;30.60;;;6.25;;
6388;SDS011;3227;42.654;23.360;2023-09-19T07:28:43;7.90;;;5.07;;
6388;SDS011;3227;42.654;23.360;2023-09-19T07:31:09;8.18;;;5.20;;
6388;SDS011;3227;42.654;23.360;2023-09-19T07:33:39;9.18;;;5.07;;
6388;SDS011;3227;42.654;23.360;2023-09-19T07:36:09;16.67;;;6.35;;
6388;SDS011;3227;42.654;23.360;2023-09-19T07:38:38;13.75;;;5.38;;
6388;SDS011;3227;42.654;23.360;2023-09-19T07:41:05;11.93;;;5.30;;
6388;SDS011;3227;42.654;23.360;2023-09-19T07:43:34;9.07;;;5.10;;
6388;SDS011;3227;42.654;23.360;2023-09-19T07:46:04;11.48;;;5.97;;
6388;SDS011;3227;42.654;23.360;2023-09-19T07:48:32;10.73;;;6.20;;
6388;SDS011;3227;42.654;23.360;2023-09-19T07:51:01;15.43;;;6.18;;
6388;SDS011;3227;42.654;23.360;2023-09-19T07:53:28;11.30;;;5.60;;
6388;SDS011;3227;42.654;23.360;2023-09-19T07:56:03;16.33;;;6.55;;
6388;SDS011;3227;42.654;23.360;2023-09-19T07:58:30;19.48;;;6.25;;
6388;SDS011;3227;42.654;23.360;2023-09-19T08:01:02;15.45;;;6.10;;
6388;SDS011;3227;42.654;23.360;2023-09-19T08:03:31;16.05;;;5.88;;
6388;SDS011;3227;42.654;23.360;2023-09-19T08:05:59;10.90;;;6.07;;
6388;SDS011;3227;42.654;23.360;2023-09-19T08:08:26;12.65;;;6.80;;
6388;SDS011;3227;42.654;23.360;2023-09-19T08:10:53;11.05;;;6.32;;
6388;SDS011;3227;42.654;23.360;2023-09-19T08:13:21;10.60;;;6.18;;
6388;SDS011;3227;42.654;23.360;2023-09-19T08:15:48;10.10;;;5.95;;
6388;SDS011;3227;42.654;23.360;2023-09-19T08:18:17;17.02;;;5.93;;
6388;SDS011;3227;42.654;23.360;2023-09-19T08:20:49;9.77;;;6.10;;
6388;SDS011;3227;42.654;23.360;2023-09-19T08:23:16;13.93;;;7.10;;
6388;SDS011;3227;42.654;23.360;2023-09-19T08:25:45;12.23;;;6.18;;
6388;SDS011;3227;42.654;23.360;2023-09-19T08:28:12;10.77;;;6.00;;
6388;SDS011;3227;42.654;23.360;2023-09-19T08:30:43;12.63;;;6.10;;
6388;SDS011;3227;42.654;23.360;2023-09-19T08:33:09;12.90;;;6.10;;
6388;SDS011;3227;42.654;23.360;2023-09-19T08:35:37;13.68;;;5.85;;
6388;SDS011;3227;42.654;23.360;2023-09-19T08:38:06;9.65;;;5.57;;
6388;SDS011;3227;42.654;23.360;2023-09-19T08:40:36;10.32;;;5.80;;
6388;SDS011;3227;42.654;23.360;2023-09-19T08:43:04;14.15;;;5.68;;
6388;SDS011;3227;42.654;23.360;2023-09-19T08:45:32;10.40;;;5.35;;
6388;SDS011;3227;42.654;23.360;2023-09-19T08:48:01;9.70;;;5.55;;
6388;SDS011;3227;42.654;23.360;2023-09-19T08:50:51;12.00;;;5.70;;
6388;SDS011;3227;42.654;23.360;2023-09-19T08:53:21;13.45;;;5.50;;
6388;SDS011;3227;42.654;23.360;2023-09-19T08:55:54;15.32;;;5.63;;
6388;SDS011;3227;42.654;23.360;2023-09-19T08:58:23;9.10;;;5.35;;
6388;SDS011;3227;42.654;23.360;2023-09-19T09:00:54;10.40;;;6.10;;
6388;SDS011;3227;42.654;23.360;2023-09-19T09:03:26;11.40;;;5.00;;
6388;SDS011;3227;42.654;23.360;2023-09-19T09:05:57;9.25;;;4.93;;
6388;SDS011;3227;42.654;23.360;2023-09-19T09:08:24;10.20;;;5.32;;
6388;SDS011;3227;42.654;23.360;2023-09-19T09:10:52;9.52;;;5.13;;
6388;SDS011;3227;42.654;23.360;2023-09-19T09:13:19;13.70;;;5.20;;
6388;SDS011;3227;42.654;23.360;2023-09-19T09:16:02;8.77;;;4.40;;
6388;SDS011;3227;42.654;23.360;2023-09-19T09:18:29;10.70;;;4.82;;
6388;SDS011;3227;42.654;23.360;2023-09-19T09:20:57;7.60;;;4.80;;
6388;SDS011;3227;42.654;23.360;2023-09-19T09:23:24;9.45;;;5.03;;
6388;SDS011;3227;42.654;23.360;2023-09-19T09:25:55;10.07;;;5.20;;
6388;SDS011;3227;42.654;23.360;2023-09-19T09:28:27;10.93;;;4.53;;
6388;SDS011;3227;42.654;23.360;2023-09-19T09:30:55;13.18;;;5.45;;
6388;SDS011;3227;42.654;23.360;2023-09-19T09:33:24;10.68;;;5.28;;
6388;SDS011;3227;42.654;23.360;2023-09-19T09:35:52;8.27;;;5.03;;
6388;SDS011;3227;42.654;23.360;2023-09-19T09:38:23;9.05;;;5.32;;
6388;SDS011;3227;42.654;23.360;2023-09-19T09:40:56;9.95;;;5.15;;
6388;SDS011;3227;42.654;23.360;2023-09-19T09:43:28;9.13;;;5.15;;
6388;SDS011;3227;42.654;23.360;2023-09-19T09:46:08;11.20;;;6.13;;
6388;SDS011;3227;42.654;23.360;2023-09-19T09:48:56;11.63;;;6.32;;
6388;SDS011;3227;42.654;23.360;2023-09-19T09:51:38;10.85;;;5.32;;
6388;SDS011;3227;42.654;23.360;2023-09-19T09:54:11;9.02;;;4.75;;
6388;SDS011;3227;42.654;23.360;2023-09-19T09:59:45;9.95;;;6.18;;
6388;SDS011;3227;42.654;23.360;2023-09-19T10:02:25;10.38;;;5.60;;
6388;SDS011;3227;42.654;23.360;2023-09-19T10:04:58;11.55;;;5.72;;
6388;SDS011;3227;42.654;23.360;2023-09-19T10:07:34;9.68;;;5.53;;
6388;SDS011;3227;42.654;23.360;2023-09-19T10:10:05;10.73;;;5.32;;
6388;SDS011;3227;42.654;23.360;2023-09-19T10:12:42;10.20;;;5.10;;
6388;SDS011;3227;42.654;23.360;2023-09-19T10:15:11;11.73;;;5.40;;
6388;SDS011;3227;42.654;23.360;2023-09-19T10:17:40;11.00;;;5.57;;
6388;SDS011;3227;42.654;23.360;2023-09-19T10:20:12;12.52;;;5.18;;
6388;SDS011;3227;42.654;23.360;2023-09-19T10:22:52;12.05;;;6.28;;
6388;SDS011;3227;42.654;23.360;2023-09-19T10:25:27;13.55;;;5.82;;
6388;SDS011;3227;42.654;23.360;2023-09-19T10:27:55;11.25;;;5.47;;
6388;SDS011;3227;42.654;23.360;2023-09-19T10:30:24;9.00;;;5.20;;
6388;SDS011;3227;42.654;23.360;2023-09-19T10:32:55;13.15;;;5.45;;
6388;SDS011;3227;42.654;23.360;2023-09-19T10:35:25;16.45;;;5.95;;
6388;SDS011;3227;42.654;23.360;2023-09-19T10:37:54;10.73;;;5.53;;
6388;SDS011;3227;42.654;23.360;2023-09-19T10:40:23;8.75;;;5.28;;
6388;SDS011;3227;42.654;23.360;2023-09-19T10:42:58;10.15;;;5.40;;
6388;SDS011;3227;42.654;23.360;2023-09-19T10:45:30;12.77;;;5.72;;
6388;SDS011;3227;42.654;23.360;2023-09-19T10:47:58;11.52;;;6.03;;
6388;SDS011;3227;42.654;23.360;2023-09-19T10:50:25;12.57;;;5.90;;
6388;SDS011;3227;42.654;23.360;2023-09-19T10:52:57;7.97;;;4.82;;
6388;SDS011;3227;42.654;23.360;2023-09-19T10:55:30;12.68;;;5.78;;
6388;SDS011;3227;42.654;23.360;2023-09-19T10:58:01;12.52;;;5.53;;
6388;SDS011;3227;42.654;23.360;2023-09-19T11:00:49;9.80;;;5.40;;
6388;SDS011;3227;42.654;23.360;2023-09-19T11:03:18;13.35;;;5.40;;
6388;SDS011;3227;42.654;23.360;2023-09-19T11:11:41;13.18;;;5.10;;
6388;SDS011;3227;42.654;23.360;2023-09-19T11:14:32;8.80;;;5.05;;
6388;SDS011;3227;42.654;23.360;2023-09-19T11:20:18;9.15;;;4.88;;
6388;SDS011;3227;42.654;23.360;2023-09-19T11:25:52;10.75;;;5.40;;
6388;SDS011;3227;42.654;23.360;2023-09-19T11:28:32;10.25;;;5.70;;
6388;SDS011;3227;42.654;23.360;2023-09-19T11:40:11;10.40;;;5.30;;
6388;SDS011;3227;42.654;23.360;2023-09-19T11:42:42;19.20;;;5.35;;
6388;SDS011;3227;42.654;23.360;2023-09-19T11:48:23;10.60;;;5.45;;
6388;SDS011;3227;42.654;23.360;2023-09-19T11:50:51;9.68;;;5.70;;
6388;SDS011;3227;42.654;23.360;2023-09-19T11:53:22;11.02;;;5.53;;
6388;SDS011;3227;42.654;23.360;2023-09-19T11:55:51;14.38;;;5.80;;
6388;SDS011;3227;42.654;23.360;2023-09-19T11:58:18;14.07;;;5.22;;
6388;SDS011;3227;42.654;23.360;2023-09-19T12:00:46;10.55;;;4.82;;
6388;SDS011;3227;42.654;23.360;2023-09-19T12:03:22;8.35;;;5.40;;
6388;SDS011;3227;42.654;23.360;2023-09-19T12:05:53;10.98;;;5.70;;
6388;SDS011;3227;42.654;23.360;2023-09-19T12:08:20;12.18;;;5.20;;
6388;SDS011;3227;42.654;23.360;2023-09-19T12:10:47;10.38;;;5.68;;
6388;SDS011;3227;42.654;23.360;2023-09-19T12:13:19;8.55;;;4.70;;
6388;SDS011;3227;42.654;23.360;2023-09-19T12:15:46;11.02;;;5.90;;
6388;SDS011;3227;42.654;23.360;2023-09-19T12:18:26;17.05;;;5.70;;
6388;SDS011;3227;42.654;23.360;2023-09-19T12:20:54;11.80;;;5.55;;
6388;SDS011;3227;42.654;23.360;2023-09-19T12:23:23;14.23;;;5.70;;
6388;SDS011;3227;42.654;23.360;2023-09-19T12:25:50;8.65;;;5.22;;
6388;SDS011;3227;42.654;23.360;2023-09-19T12:28:22;9.98;;;5.45;;
6388;SDS011;3227;42.654;23.360;2023-09-19T12:30:53;10.53;;;5.30;;
6388;SDS011;3227;42.654;23.360;2023-09-19T12:33:20;9.38;;;5.30;;
6388;SDS011;3227;42.654;23.360;2023-09-19T12:35:51;10.32;;;4.95;;
6388;SDS011;3227;42.654;23.360;2023-09-19T12:38:24;13.00;;;5.57;;
6388;SDS011;3227;42.654;23.360;2023-09-19T12:40:53;9.75;;;5.35;;
6388;SDS011;3227;42.654;23.360;2023-09-19T12:43:23;8.70;;;4.90;;
6388;SDS011;3227;42.654;23.360;2023-09-19T12:45:51;9.75;;;5.60;;
6388;SDS011;3227;42.654;23.360;2023-09-19T12:48:19;9.32;;;5.28;;
6388;SDS011;3227;42.654;23.360;2023-09-19T12:51:04;10.25;;;5.00;;
6388;SDS011;3227;42.654;23.360;2023-09-19T12:53:32;8.07;;;4.72;;
6388;SDS011;3227;42.654;23.360;2023-09-19T12:56:03;9.43;;;5.35;;
6388;SDS011;3227;42.654;23.360;2023-09-19T12:58:34;9.05;;;5.40;;
6388;SDS011;3227;42.654;23.360;2023-09-19T13:01:14;12.55;;;5.50;;
6388;SDS011;3227;42.654;23.360;2023-09-19T13:03:41;11.13;;;5.07;;
6388;SDS011;3227;42.654;23.360;2023-09-19T13:06:08;8.75;;;5.22;;
6388;SDS011;3227;42.654;23.360;2023-09-19T13:08:35;11.07;;;4.90;;
6388;SDS011;3227;42.654;23.360;2023-09-19T13:11:04;8.52;;;4.95;;
6388;SDS011;3227;42.654;23.360;2023-09-19T13:13:36;9.70;;;5.15;;
6388;SDS011;3227;42.654;23.360;2023-09-19T13:16:04;11.13;;;5.60;;
6388;SDS011;3227;42.654;23.360;2023-09-19T13:18:41;8.77;;;5.50;;
6388;SDS011;3227;42.654;23.360;2023-09-19T13:21:10;10.90;;;4.93;;
6388;SDS011;3227;42.654;23.360;2023-09-19T13:23:41;8.77;;;5.30;;
6388;SDS011;3227;42.654;23.360;2023-09-19T13:26:09;9.70;;;5.70;;
6388;SDS011;3227;42.654;23.360;2023-09-19T13:28:37;11.00;;;5.97;;
6388;SDS011;3227;42.654;23.360;2023-09-19T13:31:05;11.57;;;5.35;;
6388;SDS011;3227;42.654;23.360;2023-09-19T13:33:33;12.02;;;5.40;;
6388;SDS011;3227;42.654;23.360;2023-09-19T13:36:00;12.77;;;5.25;;
6388;SDS011;3227;42.654;23.360;2023-09-19T13:38:27;11.73;;;5.50;;
6388;SDS011;3227;42.654;23.360;2023-09-19T13:40:54;11.50;;;5.65;;
6388;SDS011;3227;42.654;23.360;2023-09-19T13:43:21;9.98;;;5.50;;
6388;SDS011;3227;42.654;23.360;2023-09-19T13:45:53;9.68;;;5.82;;
6388;SDS011;3227;42.654;23.360;2023-09-19T13:48:20;13.73;;;5.25;;
6388;SDS011;3227;42.654;23.360;2023-09-19T13:50:47;15.43;;;5.15;;
6388;SDS011;3227;42.654;23.360;2023-09-19T13:53:15;9.98;;;5.50;;
6388;SDS011;3227;42.654;23.360;2023-09-19T13:55:43;10.00;;;5.78;;
6388;SDS011;3227;42.654;23.360;2023-09-19T13:58:10;9.52;;;5.55;;
6388;SDS011;3227;42.654;23.360;2023-09-19T14:00:37;9.05;;;5.22;;
6388;SDS011;3227;42.654;23.360;2023-09-19T14:03:06;9.30;;;5.50;;
6388;SDS011;3227;42.654;23.360;2023-09-19T14:05:32;9.05;;;5.70;;
6388;SDS011;3227;42.654;23.360;2023-09-19T14:07:59;9.45;;;5.90;;
6388;SDS011;3227;42.654;23.360;2023-09-19T14:10:28;14.45;;;7.65;;
6388;SDS011;3227;42.654;23.360;2023-09-19T14:12:56;11.95;;;5.55;;
6388;SDS011;3227;42.654;23.360;2023-09-19T14:15:24;15.82;;;6.07;;
6388;SDS011;3227;42.654;23.360;2023-09-19T14:17:55;10.23;;;5.75;;
6388;SDS011;3227;42.654;23.360;2023-09-19T14:20:23;11.05;;;5.95;;
6388;SDS011;3227;42.654;23.360;2023-09-19T14:22:51;11.05;;;5.45;;
6388;SDS011;3227;42.654;23.360;2023-09-19T14:25:18;10.38;;;5.35;;
6388;SDS011;3227;42.654;23.360;2023-09-19T14:27:46;10.13;;;5.90;;
6388;SDS011;3227;42.654;23.360;2023-09-19T14:30:14;9.43;;;5.97;;
6388;SDS011;3227;42.654;23.360;2023-09-19T14:32:41;10.77;;;6.10;;
6388;SDS011;3227;42.654;23.360;2023-09-19T14:35:08;11.00;;;6.45;;
6388;SDS011;3227;42.654;23.360;2023-09-19T14:37:37;13.57;;;6.45;;
6388;SDS011;3227;42.654;23.360;2023-09-19T14:40:05;10.18;;;5.90;;
6388;SDS011;3227;42.654;23.360;2023-09-19T14:42:34;12.02;;;6.35;;
6388;SDS011;3227;42.654;23.360;2023-09-19T14:45:04;10.38;;;6.10;;
6388;SDS011;3227;42.654;23.360;2023-09-19T14:47:32;8.52;;;5.63;;
6388;SDS011;3227;42.654;23.360;2023-09-19T14:50:00;10.60;;;6.18;;
6388;SDS011;3227;42.654;23.360;2023-09-19T14:52:31;8.95;;;5.47;;
6388;SDS011;3227;42.654;23.360;2023-09-19T14:55:00;10.80;;;6.65;;
6388;SDS011;3227;42.654;23.360;2023-09-19T14:57:27;10.18;;;5.85;;
6388;SDS011;3227;42.654;23.360;2023-09-19T14:59:54;9.02;;;5.13;;
6388;SDS011;3227;42.654;23.360;2023-09-19T15:02:21;8.55;;;5.53;;
6388;SDS011;3227;42.654;23.360;2023-09-19T15:04:48;9.70;;;5.45;;
6388;SDS011;3227;42.654;23.360;2023-09-19T15:07:16;11.07;;;5.93;;
6388;SDS011;3227;42.654;23.360;2023-09-19T15:09:42;12.55;;;5.80;;
6388;SDS011;3227;42.654;23.360;2023-09-19T15:12:12;12.02;;;6.30;;
6388;SDS011;3227;42.654;23.360;2023-09-19T15:14:40;10.77;;;5.95;;
6388;SDS011;3227;42.654;23.360;2023-09-19T15:17:07;11.20;;;6.90;;
6388;SDS011;3227;42.654;23.360;2023-09-19T15:19:34;9.90;;;6.07;;
6388;SDS011;3227;42.654;23.360;2023-09-19T15:22:02;11.27;;;5.93;;
6388;SDS011;3227;42.654;23.360;2023-09-19T15:24:30;12.60;;;5.63;;
6388;SDS011;3227;42.654;23.360;2023-09-19T15:26:57;10.38;;;5.80;;
6388;SDS011;3227;42.654;23.360;2023-09-19T15:29:25;12.82;;;6.28;;
6388;SDS011;3227;42.654;23.360;2023-09-19T15:31:54;10.48;;;6.07;;
6388;SDS011;3227;42.654;23.360;2023-09-19T15:34:22;12.05;;;6.50;;
6388;SDS011;3227;42.654;23.360;2023-09-19T15:36:49;11.07;;;6.10;;